createdAt,value
2017-05-10T00:02:17.524Z,5.02
2017-05-10T00:04:45.796Z,7.30
2017-05-10T00:07:14.908Z,6.26
2017-05-10T00:09:43.175Z,6.38
2017-05-10T00:12:11.475Z,6.52
2017-05-10T00:14:39.859Z,8.16
2017-05-10T00:17:08.134Z,6.08
2017-05-10T00:19:36.419Z,8.12
2017-05-10T00:22:04.700Z,5.50
2017-05-10T00:24:33.058Z,7.74
2017-05-10T00:27:01.322Z,6.46
2017-05-10T00:29:29.607Z,6.86
2017-05-10T00:31:57.881Z,6.38
2017-05-10T00:34:26.164Z,8.34
2017-05-10T00:36:54.539Z,7.28
2017-05-10T00:39:22.819Z,10.30
2017-05-10T00:41:51.112Z,7.54
2017-05-10T00:44:19.379Z,8.32
2017-05-10T00:46:47.823Z,6.32
2017-05-10T00:49:16.090Z,6.26
2017-05-10T00:51:44.915Z,6.56
2017-05-10T00:54:13.333Z,6.00
2017-05-10T00:56:41.621Z,6.96
2017-05-10T00:59:10.660Z,7.98
2017-05-10T01:01:38.935Z,7.84
2017-05-10T01:04:07.219Z,8.02
2017-05-10T01:06:35.499Z,7.94
2017-05-10T01:09:03.793Z,8.04
2017-05-10T01:11:32.063Z,7.18
2017-05-10T01:14:00.347Z,6.98
2017-05-10T01:16:28.690Z,7.48
2017-05-10T01:18:56.980Z,8.50
2017-05-10T01:21:25.246Z,7.72
2017-05-10T01:23:53.531Z,7.34
2017-05-10T01:26:21.799Z,7.90
2017-05-10T01:28:50.171Z,7.80
2017-05-10T01:31:18.452Z,8.34
2017-05-10T01:33:46.848Z,14.24
2017-05-10T01:36:15.127Z,6.80
2017-05-10T01:38:43.887Z,8.26
2017-05-10T01:41:12.267Z,8.50
2017-05-10T01:43:40.542Z,8.44
2017-05-10T01:46:08.819Z,6.58
2017-05-10T01:48:37.082Z,8.28
2017-05-10T01:51:05.367Z,7.26
2017-05-10T01:53:33.631Z,7.66
2017-05-10T01:56:01.899Z,9.40
2017-05-10T01:58:30.200Z,6.82
2017-05-10T02:00:58.575Z,7.92
2017-05-10T02:03:26.852Z,7.90
2017-05-10T02:05:55.119Z,7.26
2017-05-10T02:08:23.501Z,9.80
2017-05-10T02:10:51.771Z,7.72
2017-05-10T02:13:20.051Z,7.72
2017-05-10T02:15:48.310Z,7.70
2017-05-10T02:18:16.608Z,8.46
2017-05-10T02:20:44.875Z,8.82
2017-05-10T02:23:13.258Z,7.28
2017-05-10T02:25:41.523Z,8.52
2017-05-10T02:28:09.786Z,7.82
2017-05-10T02:30:38.067Z,7.12
2017-05-10T02:33:06.330Z,6.88
2017-05-10T02:35:35.451Z,7.00
2017-05-10T02:38:03.719Z,8.66
2017-05-10T02:40:31.999Z,6.20
2017-05-10T02:43:00.274Z,8.12
2017-05-10T02:45:28.571Z,8.14
2017-05-10T02:47:56.836Z,9.36
2017-05-10T02:50:25.099Z,8.82
2017-05-10T02:52:53.491Z,8.42
2017-05-10T02:55:21.766Z,9.22
2017-05-10T02:57:50.046Z,8.62
2017-05-10T03:00:18.311Z,9.46
2017-05-10T03:02:46.595Z,8.46
2017-05-10T03:05:14.871Z,7.82
2017-05-10T03:07:43.152Z,8.96
2017-05-10T03:10:11.831Z,9.54
2017-05-10T03:12:40.115Z,10.02
2017-05-10T03:15:08.484Z,9.62
2017-05-10T03:17:36.771Z,7.36
2017-05-10T03:20:05.139Z,9.80
2017-05-10T03:22:33.519Z,11.06
2017-05-10T03:25:01.786Z,9.26
2017-05-10T03:27:30.071Z,9.92
2017-05-10T03:29:58.360Z,10.66
2017-05-10T03:32:26.635Z,10.14
2017-05-10T03:34:54.927Z,12.54
2017-05-10T03:37:23.375Z,12.70
2017-05-10T03:39:51.663Z,12.78
2017-05-10T03:42:19.935Z,11.18
2017-05-10T03:44:48.243Z,12.24
2017-05-10T03:47:16.583Z,11.82
2017-05-10T03:49:44.866Z,12.54
2017-05-10T03:52:13.239Z,9.58
2017-05-10T03:54:41.515Z,12.68
2017-05-10T03:57:09.803Z,11.72
2017-05-10T03:59:38.075Z,12.14
2017-05-10T04:02:06.363Z,11.92
2017-05-10T04:04:34.635Z,10.66
2017-05-10T04:07:02.935Z,10.26
2017-05-10T04:09:31.207Z,9.98
2017-05-10T04:11:59.470Z,9.42
2017-05-10T04:14:27.758Z,11.08
2017-05-10T04:16:56.777Z,9.06
2017-05-10T04:19:25.087Z,7.74
2017-05-10T04:21:53.367Z,7.80
2017-05-10T04:24:21.655Z,10.42
2017-05-10T04:26:50.019Z,7.76
2017-05-10T04:29:18.401Z,10.88
2017-05-10T04:31:46.672Z,10.14
2017-05-10T04:34:14.975Z,11.20
2017-05-10T04:36:43.252Z,8.92
2017-05-10T04:39:11.519Z,8.76
2017-05-10T04:41:39.803Z,8.04
2017-05-10T04:44:08.070Z,9.80
2017-05-10T04:46:36.352Z,9.96
2017-05-10T04:49:04.703Z,12.02
2017-05-10T04:51:32.983Z,9.78
2017-05-10T04:54:01.255Z,11.72
2017-05-10T04:56:29.548Z,10.52
2017-05-10T04:58:57.815Z,8.80
2017-05-10T05:01:26.088Z,13.58
2017-05-10T05:03:54.375Z,12.74
2017-05-10T05:06:22.654Z,11.94
2017-05-10T05:08:50.943Z,11.18
2017-05-10T05:11:19.287Z,13.00
2017-05-10T05:13:47.574Z,12.78
2017-05-10T05:16:15.943Z,11.02
2017-05-10T05:18:44.235Z,10.20
2017-05-10T05:21:12.595Z,10.58
2017-05-10T05:23:41.074Z,12.16
2017-05-10T05:26:09.654Z,11.56
2017-05-10T05:28:37.925Z,11.94
2017-05-10T05:31:06.314Z,10.58
2017-05-10T05:33:34.578Z,9.76
2017-05-10T05:36:02.863Z,13.02
2017-05-10T05:38:31.247Z,14.28
2017-05-10T05:40:59.558Z,12.62
2017-05-10T05:43:27.956Z,13.12
2017-05-10T05:45:56.971Z,14.44
2017-05-10T05:48:25.260Z,13.58
2017-05-10T05:50:53.535Z,12.44
2017-05-10T05:53:21.826Z,11.92
2017-05-10T05:55:50.199Z,13.36
2017-05-10T05:58:18.490Z,14.86
2017-05-10T06:00:46.763Z,13.02
2017-05-10T06:03:15.122Z,11.58
2017-05-10T06:05:43.399Z,16.96
2017-05-10T06:08:11.700Z,14.02
2017-05-10T06:10:40.055Z,13.98
2017-05-10T06:13:08.323Z,13.70
2017-05-10T06:15:36.612Z,13.76
2017-05-10T06:18:04.984Z,14.46
2017-05-10T06:20:33.280Z,15.98
2017-05-10T06:23:01.555Z,14.34
2017-05-10T06:25:29.846Z,13.84
2017-05-10T06:27:58.119Z,16.28
2017-05-10T06:30:26.467Z,16.50
2017-05-10T06:32:54.738Z,15.74
2017-05-10T06:35:23.119Z,12.28
2017-05-10T06:37:51.408Z,15.04
2017-05-10T06:40:19.771Z,13.46
2017-05-10T06:42:48.068Z,13.12
2017-05-10T06:45:16.342Z,13.60
2017-05-10T06:47:44.632Z,15.66
2017-05-10T06:50:12.903Z,14.04
2017-05-10T06:52:41.196Z,15.34
2017-05-10T06:55:10.472Z,15.70
2017-05-10T06:57:38.787Z,14.06
2017-05-10T07:00:07.807Z,12.12
2017-05-10T07:02:36.083Z,16.22
2017-05-10T07:05:04.376Z,14.58
2017-05-10T07:07:32.652Z,14.52
2017-05-10T07:10:00.942Z,13.80
2017-05-10T07:12:29.219Z,16.14
2017-05-10T07:14:57.515Z,11.46
2017-05-10T07:17:26.571Z,17.24
2017-05-10T07:19:54.885Z,14.56
2017-05-10T07:22:23.224Z,12.36
2017-05-10T07:24:52.337Z,10.88
2017-05-10T07:27:23.777Z,12.56
2017-05-10T07:29:52.152Z,13.74
2017-05-10T07:32:20.449Z,11.78
2017-05-10T07:34:48.737Z,11.50
2017-05-10T07:37:17.031Z,14.36
2017-05-10T07:39:46.067Z,14.08
2017-05-10T07:42:14.358Z,13.12
2017-05-10T07:44:42.647Z,14.72
2017-05-10T07:47:10.960Z,13.28
2017-05-10T07:49:39.975Z,11.30
2017-05-10T07:52:08.259Z,14.36
2017-05-10T07:54:36.555Z,12.44
2017-05-10T07:57:04.924Z,12.76
2017-05-10T07:59:33.215Z,12.82
2017-05-10T08:02:01.501Z,12.46
2017-05-10T08:04:30.563Z,12.20
2017-05-10T08:06:59.319Z,12.64
2017-05-10T08:09:27.604Z,14.66
2017-05-10T08:11:55.903Z,14.54
2017-05-10T08:14:24.696Z,14.04
2017-05-10T08:16:53.304Z,13.58
2017-05-10T08:19:21.995Z,13.42
2017-05-10T08:21:50.291Z,11.54
2017-05-10T08:24:19.309Z,10.84
2017-05-10T08:26:47.712Z,11.98
2017-05-10T08:29:15.992Z,11.98
2017-05-10T08:31:44.364Z,11.68
2017-05-10T08:34:12.658Z,12.50
2017-05-10T08:36:40.937Z,13.26
2017-05-10T08:39:09.291Z,13.62
2017-05-10T08:41:37.675Z,11.76
2017-05-10T08:44:05.967Z,11.24
2017-05-10T08:46:34.243Z,12.94
2017-05-10T08:49:02.538Z,10.18
2017-05-10T08:51:30.818Z,11.72
2017-05-10T08:53:59.115Z,10.96
2017-05-10T08:56:27.391Z,10.76
2017-05-10T08:58:56.418Z,11.54
2017-05-10T09:01:24.979Z,9.90
2017-05-10T09:03:53.252Z,9.36
2017-05-10T09:06:21.539Z,9.26
2017-05-10T09:08:49.815Z,10.26
2017-05-10T09:11:19.058Z,8.52
2017-05-10T09:13:47.340Z,10.36
2017-05-10T09:16:15.612Z,9.08
2017-05-10T09:18:43.959Z,9.88
2017-05-10T09:21:12.336Z,8.14
2017-05-10T09:23:40.627Z,9.16
2017-05-10T09:26:08.900Z,9.04
2017-05-10T09:28:37.198Z,8.44
2017-05-10T09:31:05.472Z,8.34
2017-05-10T09:33:33.819Z,9.00
2017-05-10T09:36:02.195Z,7.16
2017-05-10T09:38:30.488Z,6.96
2017-05-10T09:40:59.431Z,8.98
2017-05-10T09:43:27.743Z,8.88
2017-05-10T09:45:56.036Z,8.78
2017-05-10T09:48:24.309Z,7.70
2017-05-10T09:50:52.603Z,16.30
2017-05-10T09:53:20.875Z,8.14
2017-05-10T09:55:49.163Z,7.28
2017-05-10T09:58:17.495Z,6.68
2017-05-10T10:00:46.486Z,8.08
2017-05-10T10:03:14.867Z,7.70
2017-05-10T10:05:43.655Z,8.08
2017-05-10T10:08:11.927Z,6.52
2017-05-10T10:10:40.256Z,7.10
2017-05-10T10:13:09.299Z,7.12
2017-05-10T10:15:37.570Z,5.72
2017-05-10T10:18:06.414Z,4.84
2017-05-10T10:20:35.427Z,5.38
2017-05-10T10:23:03.711Z,6.12
2017-05-10T10:25:31.987Z,6.02
2017-05-10T10:28:00.290Z,4.80
2017-05-10T10:30:28.564Z,5.04
2017-05-10T10:32:56.854Z,5.46
2017-05-10T10:35:25.987Z,4.20
2017-05-10T10:37:55.024Z,6.00
2017-05-10T10:40:23.300Z,5.22
2017-05-10T10:42:51.592Z,6.60
2017-05-10T10:45:19.871Z,5.42
2017-05-10T10:47:48.707Z,4.52
2017-05-10T10:50:17.024Z,4.34
2017-05-10T10:52:45.295Z,5.58
2017-05-10T10:55:13.671Z,5.32
2017-05-10T10:57:41.943Z,4.36
2017-05-10T11:00:10.340Z,4.72
2017-05-10T11:02:38.627Z,4.76
2017-05-10T11:05:06.924Z,4.48
2017-05-10T11:07:35.940Z,5.30
2017-05-10T11:10:04.215Z,5.42
2017-05-10T11:12:32.563Z,5.30
2017-05-10T11:15:00.843Z,5.96
2017-05-10T11:17:29.180Z,5.78
2017-05-10T11:19:57.460Z,4.46
2017-05-10T11:22:25.751Z,5.16
2017-05-10T11:24:54.103Z,5.30
2017-05-10T11:27:23.052Z,5.88
2017-05-10T11:29:52.059Z,5.92
2017-05-10T11:32:20.348Z,5.16
2017-05-10T11:34:48.619Z,5.48
2017-05-10T11:37:16.910Z,5.26
2017-05-10T11:39:45.178Z,5.78
2017-05-10T11:42:13.482Z,5.50
2017-05-10T11:44:41.768Z,4.70
2017-05-10T11:47:10.123Z,6.22
2017-05-10T11:49:38.499Z,5.22
2017-05-10T11:52:06.772Z,5.82
2017-05-10T11:54:35.060Z,3.76
2017-05-10T11:57:03.331Z,4.14
2017-05-10T11:59:31.623Z,4.22
2017-05-10T12:01:59.984Z,4.92
2017-05-10T12:04:28.292Z,5.68
2017-05-10T12:06:56.635Z,5.52
2017-05-10T12:09:24.903Z,5.12
2017-05-10T12:11:53.187Z,5.30
2017-05-10T12:14:21.875Z,4.48
2017-05-10T12:16:50.977Z,4.62
2017-05-10T12:19:19.248Z,4.56
2017-05-10T12:21:47.623Z,4.30
2017-05-10T12:24:15.897Z,3.90
2017-05-10T12:26:44.281Z,4.42
2017-05-10T12:29:12.575Z,5.50
2017-05-10T12:31:40.884Z,5.66
2017-05-10T12:34:10.684Z,5.96
2017-05-10T12:36:39.737Z,3.62
2017-05-10T12:39:08.026Z,4.98
2017-05-10T12:41:36.387Z,4.40
2017-05-10T12:44:05.051Z,7.82
2017-05-10T12:46:33.331Z,3.88
2017-05-10T12:49:01.620Z,3.80
2017-05-10T12:51:29.892Z,3.06
2017-05-10T12:53:58.183Z,3.82
2017-05-10T12:56:26.456Z,4.52
2017-05-10T12:58:54.747Z,5.44
2017-05-10T13:01:23.027Z,4.70
2017-05-10T13:03:51.331Z,4.18
2017-05-10T13:06:20.347Z,4.58
2017-05-10T13:08:48.623Z,4.62
2017-05-10T13:11:16.906Z,5.50
2017-05-10T13:13:45.176Z,3.86
2017-05-10T13:16:13.463Z,3.24
2017-05-10T13:18:41.735Z,4.00
2017-05-10T13:21:10.136Z,4.86
2017-05-10T13:23:38.407Z,4.72
2017-05-10T13:26:06.699Z,4.52
2017-05-10T13:28:35.060Z,4.52
2017-05-10T13:31:03.439Z,4.70
2017-05-10T13:33:31.728Z,5.00
2017-05-10T13:36:00.007Z,4.28
2017-05-10T13:38:28.375Z,5.98
2017-05-10T13:40:56.743Z,5.70
2017-05-10T13:43:25.032Z,4.42
2017-05-10T13:45:53.400Z,4.72
2017-05-10T13:48:21.692Z,4.24
2017-05-10T13:50:50.051Z,3.82
2017-05-10T13:53:18.350Z,5.20
2017-05-10T13:55:46.880Z,3.94
2017-05-10T13:58:15.187Z,4.00
2017-05-10T14:00:43.475Z,4.16
2017-05-10T14:03:11.747Z,4.14
2017-05-10T14:05:40.117Z,3.76
2017-05-10T14:08:08.391Z,3.40
2017-05-10T14:10:36.702Z,3.76
2017-05-10T14:13:04.979Z,3.90
2017-05-10T14:15:33.331Z,3.78
2017-05-10T14:18:01.623Z,2.78
2017-05-10T14:20:29.980Z,3.74
2017-05-10T14:22:58.271Z,3.28
2017-05-10T14:25:26.547Z,5.80
2017-05-10T14:27:54.839Z,3.10
2017-05-10T14:30:23.188Z,2.98
2017-05-10T14:32:51.479Z,4.00
2017-05-10T14:35:19.751Z,3.98
2017-05-10T14:37:48.039Z,4.92
2017-05-10T14:40:16.312Z,3.36
2017-05-10T14:42:44.619Z,3.62
2017-05-10T14:45:13.636Z,4.20
2017-05-10T14:47:41.911Z,5.24
2017-05-10T14:50:10.679Z,3.10
2017-05-10T14:52:38.997Z,3.20
2017-05-10T14:55:07.291Z,3.14
2017-05-10T14:57:35.571Z,3.00
2017-05-10T15:00:03.863Z,2.82
2017-05-10T15:02:32.880Z,2.90
2017-05-10T15:05:01.156Z,3.08
2017-05-10T15:07:29.451Z,2.98
2017-05-10T15:09:58.206Z,3.48
2017-05-10T15:12:27.246Z,3.08
2017-05-10T15:14:55.628Z,4.70
2017-05-10T15:17:23.921Z,3.88
2017-05-10T15:19:52.203Z,3.50
2017-05-10T15:22:20.495Z,2.66
2017-05-10T15:24:48.831Z,3.22
2017-05-10T15:27:17.123Z,2.32
2017-05-10T15:29:45.399Z,3.08
2017-05-10T15:32:14.071Z,2.74
2017-05-10T15:34:42.344Z,3.64
2017-05-10T15:37:10.639Z,3.78
2017-05-10T15:39:38.915Z,2.88
2017-05-10T15:42:07.227Z,3.54
2017-05-10T15:44:36.239Z,3.12
2017-05-10T15:47:04.518Z,3.58
2017-05-10T15:49:32.803Z,3.12
2017-05-10T15:52:01.076Z,3.68
2017-05-10T15:54:29.399Z,2.86
2017-05-10T15:56:57.743Z,3.10
2017-05-10T15:59:26.122Z,2.54
2017-05-10T16:01:54.395Z,2.76
2017-05-10T16:04:22.703Z,2.92
2017-05-10T16:06:50.978Z,3.84
2017-05-10T16:09:19.255Z,4.00
2017-05-10T16:11:47.550Z,3.84
2017-05-10T16:14:16.599Z,2.98
2017-05-10T16:16:44.976Z,2.94
2017-05-10T16:19:13.251Z,3.06
2017-05-10T16:21:41.543Z,2.58
2017-05-10T16:24:09.903Z,2.88
2017-05-10T16:26:38.283Z,3.32
2017-05-10T16:29:06.559Z,2.70
2017-05-10T16:31:34.832Z,2.40
2017-05-10T16:34:03.124Z,2.66
2017-05-10T16:36:31.490Z,4.18
2017-05-10T16:38:59.783Z,4.12
2017-05-10T16:41:28.054Z,3.18
2017-05-10T16:43:56.347Z,3.40
2017-05-10T16:46:24.618Z,2.92
2017-05-10T16:48:52.907Z,2.90
2017-05-10T16:51:21.964Z,2.58
2017-05-10T16:53:50.269Z,3.32
2017-05-10T16:56:18.604Z,3.26
2017-05-10T16:58:46.878Z,3.18
2017-05-10T17:01:15.166Z,2.50
2017-05-10T17:03:43.440Z,3.64
2017-05-10T17:06:11.740Z,4.60
2017-05-10T17:08:40.033Z,3.68
2017-05-10T17:11:08.991Z,3.80
2017-05-10T17:13:37.359Z,2.60
2017-05-10T17:16:05.773Z,3.96
2017-05-10T17:18:34.334Z,3.16
2017-05-10T17:21:03.018Z,4.88
2017-05-10T17:23:32.523Z,3.54
2017-05-10T17:26:01.311Z,4.20
2017-05-10T17:28:30.815Z,2.60
2017-05-10T17:31:00.934Z,2.60
2017-05-10T17:33:30.346Z,2.78
2017-05-10T17:35:59.124Z,2.76
2017-05-10T17:38:28.629Z,3.30
2017-05-10T17:40:58.135Z,2.94
2017-05-10T17:43:27.637Z,2.80
2017-05-10T17:45:57.142Z,3.18
2017-05-10T17:48:26.647Z,2.78
2017-05-10T17:50:56.152Z,3.22
2017-05-10T17:53:25.666Z,3.50
2017-05-10T17:55:54.443Z,2.70
2017-05-10T17:58:23.947Z,3.86
2017-05-10T18:00:53.453Z,3.12
2017-05-10T18:03:22.957Z,4.10
2017-05-10T18:05:52.462Z,4.00
2017-05-10T18:08:21.966Z,3.78
2017-05-10T18:10:51.471Z,3.04
2017-05-10T18:13:20.974Z,3.26
2017-05-10T18:15:50.483Z,3.02
2017-05-10T18:18:19.984Z,3.70
2017-05-10T18:20:49.488Z,4.14
2017-05-10T18:23:18.993Z,3.10
2017-05-10T18:25:48.498Z,2.38
2017-05-10T18:28:18.006Z,2.70
2017-05-10T18:30:47.509Z,3.00
2017-05-10T18:33:17.011Z,3.00
2017-05-10T18:35:46.515Z,5.50
2017-05-10T18:38:16.020Z,2.92
2017-05-10T18:40:45.524Z,3.70
2017-05-10T18:43:15.135Z,3.74
2017-05-10T18:45:44.444Z,3.84
2017-05-10T18:48:13.423Z,2.90
2017-05-10T18:50:42.927Z,2.30
2017-05-10T18:53:12.432Z,2.78
2017-05-10T18:55:41.841Z,2.18
2017-05-10T18:58:11.954Z,3.30
2017-05-10T19:00:41.458Z,3.72
2017-05-10T19:03:10.965Z,2.88
2017-05-10T19:05:40.876Z,2.84
2017-05-10T19:08:10.381Z,5.96
2017-05-10T19:10:39.886Z,3.56
2017-05-10T19:13:09.391Z,3.82
2017-05-10T19:15:38.484Z,3.88
2017-05-10T19:18:06.775Z,3.44
2017-05-10T19:20:35.811Z,3.82
2017-05-10T19:23:04.102Z,4.08
2017-05-10T19:25:32.375Z,3.76
2017-05-10T19:28:00.671Z,3.60
2017-05-10T19:30:29.028Z,3.38
2017-05-10T19:32:57.319Z,4.32
2017-05-10T19:35:25.943Z,4.62
2017-05-10T19:37:54.230Z,3.34
2017-05-10T19:40:22.503Z,2.90
2017-05-10T19:42:50.816Z,5.80
2017-05-10T19:45:19.091Z,4.34
2017-05-10T19:47:47.365Z,3.40
2017-05-10T19:50:15.651Z,4.84
2017-05-10T19:52:43.944Z,3.52
2017-05-10T19:55:12.236Z,3.70
2017-05-10T19:57:40.519Z,3.96
2017-05-10T20:00:09.194Z,3.56
2017-05-10T20:02:37.467Z,3.76
2017-05-10T20:05:05.768Z,7.04
2017-05-10T20:07:34.117Z,3.30
2017-05-10T20:10:02.413Z,3.52
2017-05-10T20:12:31.591Z,3.60
2017-05-10T20:14:59.894Z,3.50
2017-05-10T20:17:28.167Z,3.54
2017-05-10T20:19:56.516Z,2.64
2017-05-10T20:22:24.809Z,3.32
2017-05-10T20:24:53.839Z,3.10
2017-05-10T20:27:22.871Z,4.06
2017-05-10T20:29:51.144Z,4.88
2017-05-10T20:32:19.441Z,4.36
2017-05-10T20:34:48.280Z,3.80
2017-05-10T20:37:16.572Z,3.00
2017-05-10T20:39:44.852Z,3.82
2017-05-10T20:42:13.143Z,2.82
2017-05-10T20:44:41.416Z,3.80
2017-05-10T20:47:09.704Z,3.28
2017-05-10T20:49:37.979Z,4.24
2017-05-10T20:52:06.358Z,2.62
2017-05-10T20:54:34.653Z,4.10
2017-05-10T20:57:02.944Z,4.00
2017-05-10T20:59:31.230Z,2.98
2017-05-10T21:02:00.242Z,4.06
2017-05-10T21:04:28.531Z,3.36
2017-05-10T21:06:56.805Z,3.48
2017-05-10T21:09:25.100Z,3.26
2017-05-10T21:11:53.376Z,3.76
2017-05-10T21:14:21.670Z,3.52
2017-05-10T21:16:49.943Z,4.44
2017-05-10T21:19:18.308Z,3.10
2017-05-10T21:21:46.586Z,3.60
2017-05-10T21:24:15.059Z,6.70
2017-05-10T21:26:43.438Z,3.56
2017-05-10T21:29:11.724Z,25.44
2017-05-10T21:31:40.090Z,3.92
2017-05-10T21:34:08.363Z,4.38
2017-05-10T21:36:36.650Z,3.98
2017-05-10T21:39:04.927Z,3.38
2017-05-10T21:41:33.211Z,4.64
2017-05-10T21:44:01.483Z,3.92
2017-05-10T21:46:29.785Z,5.24
2017-05-10T21:48:58.055Z,4.36
2017-05-10T21:51:26.399Z,4.10
2017-05-10T21:53:54.688Z,4.32
2017-05-10T21:56:22.959Z,5.90
2017-05-10T21:58:51.247Z,3.26
2017-05-10T22:01:19.715Z,4.38
2017-05-10T22:03:48.027Z,6.60
2017-05-10T22:06:17.043Z,3.00
2017-05-10T22:08:45.339Z,5.20
2017-05-10T22:11:13.610Z,4.76
2017-05-10T22:13:41.911Z,5.40
2017-05-10T22:16:10.184Z,4.32
2017-05-10T22:18:38.680Z,4.58
2017-05-10T22:21:06.971Z,3.36
2017-05-10T22:23:35.240Z,3.78
2017-05-10T22:26:03.579Z,4.88
2017-05-10T22:28:31.851Z,3.60
2017-05-10T22:31:00.140Z,3.98
2017-05-10T22:33:28.418Z,3.68
2017-05-10T22:35:56.728Z,4.00
2017-05-10T22:38:25.072Z,3.66
2017-05-10T22:40:53.347Z,4.54
2017-05-10T22:43:21.718Z,4.24
2017-05-10T22:45:49.990Z,3.72
2017-05-10T22:48:18.382Z,3.90
2017-05-10T22:50:46.677Z,3.52
2017-05-10T22:53:14.968Z,3.40
2017-05-10T22:55:43.239Z,3.64
2017-05-10T22:58:11.539Z,5.26
2017-05-10T23:00:40.551Z,4.24
2017-05-10T23:03:08.829Z,3.80
2017-05-10T23:05:37.119Z,4.38
2017-05-10T23:08:05.403Z,4.10
2017-05-10T23:10:33.695Z,5.12
2017-05-10T23:13:01.971Z,4.50
2017-05-10T23:15:30.258Z,5.20
2017-05-10T23:17:58.532Z,4.62
2017-05-10T23:20:26.884Z,3.54
2017-05-10T23:22:55.156Z,3.58
2017-05-10T23:25:23.724Z,4.46
2017-05-10T23:27:51.999Z,3.68
2017-05-10T23:30:20.276Z,3.80
2017-05-10T23:32:48.775Z,4.08
2017-05-10T23:35:17.047Z,4.28
2017-05-10T23:37:45.437Z,3.82
2017-05-10T23:40:13.712Z,4.80
2017-05-10T23:42:42.084Z,4.20
2017-05-10T23:45:10.357Z,4.54
2017-05-10T23:47:38.659Z,4.56
2017-05-10T23:50:06.983Z,4.70
2017-05-10T23:52:35.699Z,5.06
2017-05-10T23:55:03.975Z,4.36
2017-05-10T23:57:32.264Z,4.08
